Time;durP1;ratioP1;P1;durP2;ratioP2;P2;SDS_P1;SDS_P2;PMS_P1;PMS_P2;Temp;Humidity;BMP_temperature;BMP_pressure;BME280_temperature;BME280_humidity;BME280_pressure;Samples;Min_cycle;Max_cycle;Signal;HPM_P1;HPM_P2
2023/09/25 00:00:23;;;;;;;8.57;5.90;;;;;;;21.48;100.00;102352.84;5095090;28;20055;-77
2023/09/25 00:02:48;;;;;;;6.72;5.70;;;;;;;21.77;100.00;102375.09;5094945;28;20024;-77
2023/09/25 00:05:16;;;;;;;8.45;5.93;;;;;;;21.73;100.00;102404.59;5094227;28;20035;-78
2023/09/25 00:07:42;;;;;;;8.85;6.13;;;;;;;22.04;100.00;102418.22;5094447;28;20112;-76
2023/09/25 00:10:07;;;;;;;8.68;5.32;;;;;;;21.65;100.00;102359.19;5094214;28;20032;-78
2023/09/25 00:12:33;;;;;;;9.60;6.10;;;;;;;21.75;100.00;102404.56;5077204;28;20039;-77
2023/09/25 00:14:58;;;;;;;7.15;5.55;;;;;;;22.05;100.00;102401.75;5093995;28;20028;-76
2023/09/25 00:17:23;;;;;;;7.93;5.95;;;;;;;21.96;100.00;102402.09;5077280;28;20089;-78
2023/09/25 00:19:49;;;;;;;7.47;5.68;;;;;;;21.88;100.00;102396.34;5094710;28;20035;-77
2023/09/25 00:22:14;;;;;;;6.35;5.35;;;;;;;21.66;100.00;102332.34;5076717;28;20028;-77
2023/09/25 00:24:40;;;;;;;8.18;6.50;;;;;;;21.49;100.00;102313.09;5093316;28;20052;-76
2023/09/25 00:27:06;;;;;;;7.75;5.55;;;;;;;21.53;100.00;102313.84;5094494;28;20064;-78
2023/09/25 00:29:32;;;;;;;8.35;5.72;;;;;;;21.82;100.00;102369.81;5075533;28;20122;-78
2023/09/25 00:31:57;;;;;;;6.78;5.50;;;;;;;21.66;100.00;102359.13;5093431;28;20051;-79
2023/09/25 00:34:22;;;;;;;8.70;5.97;;;;;;;21.22;100.00;102295.94;5094429;28;20024;-80
2023/09/25 00:36:48;;;;;;;7.78;5.60;;;;;;;21.58;100.00;102350.78;5093721;28;20039;-76
2023/09/25 00:39:13;;;;;;;8.80;6.20;;;;;;;21.55;100.00;102359.47;5093374;28;20031;-76
2023/09/25 00:41:39;;;;;;;7.13;6.35;;;;;;;21.73;100.00;102372.69;5094384;28;20057;-75
2023/09/25 00:44:04;;;;;;;9.73;6.65;;;;;;;21.52;100.00;102369.09;5094266;28;20039;-77
2023/09/25 00:46:31;;;;;;;9.15;5.90;;;;;;;21.31;100.00;102316.31;5075897;28;20044;-77
2023/09/25 00:48:56;;;;;;;8.63;5.95;;;;;;;21.59;100.00;102374.00;5092707;28;20039;-76
2023/09/25 00:51:22;;;;;;;6.75;5.95;;;;;;;21.37;100.00;102328.22;5093091;28;20032;-74
2023/09/25 00:53:48;;;;;;;9.23;6.22;;;;;;;21.22;100.00;102333.91;5093421;28;20032;-75
2023/09/25 00:56:14;;;;;;;8.27;5.82;;;;;;;21.47;100.00;102379.63;5093935;28;20042;-78
2023/09/25 00:58:40;;;;;;;8.18;6.22;;;;;;;21.38;100.00;102377.34;5076271;28;20517;-77
2023/09/25 01:01:07;;;;;;;7.35;5.88;;;;;;;21.27;100.00;102378.63;5093309;28;20089;-76
2023/09/25 01:03:33;;;;;;;11.02;6.18;;;;;;;21.28;100.00;102388.06;5074983;28;20095;-79
2023/09/25 01:05:59;;;;;;;9.25;6.10;;;;;;;21.44;100.00;102389.25;5091128;28;20119;-76
2023/09/25 01:08:24;;;;;;;10.27;6.20;;;;;;;21.06;100.00;102384.50;5074846;28;20090;-77
2023/09/25 01:10:50;;;;;;;9.85;5.70;;;;;;;20.98;100.00;102340.72;5091959;28;20065;-74
2023/09/25 01:13:16;;;;;;;7.22;5.55;;;;;;;21.05;100.00;102342.28;5093285;28;20081;-75
2023/09/25 01:15:41;;;;;;;7.13;6.10;;;;;;;21.18;100.00;102384.09;5092842;28;20024;-76
2023/09/25 01:18:10;;;;;;;9.52;6.18;;;;;;;21.28;100.00;102380.31;5092910;28;20024;-75
2023/09/25 01:20:36;;;;;;;8.38;6.20;;;;;;;21.15;100.00;102322.09;5092587;28;20036;-74
2023/09/25 01:23:02;;;;;;;7.90;5.57;;;;;;;21.05;100.00;102312.94;5091999;28;20032;-74
2023/09/25 01:25:27;;;;;;;7.20;5.68;;;;;;;21.42;100.00;102329.75;5093046;28;20414;-75
2023/09/25 01:27:53;;;;;;;8.07;5.80;;;;;;;20.86;100.00;102265.31;5093631;28;20032;-76
2023/09/25 01:30:19;;;;;;;6.60;5.53;;;;;;;21.32;100.00;102362.03;5092477;28;20143;-75
2023/09/25 01:32:46;;;;;;;8.05;5.78;;;;;;;21.32;100.00;102356.00;5093476;28;20482;-75
2023/09/25 01:35:14;;;;;;;7.35;5.90;;;;;;;21.11;100.00;102297.22;5093161;28;20120;-75
2023/09/25 01:37:44;;;;;;;11.60;6.00;;;;;;;21.17;100.00;102287.50;5091613;28;20405;-75
2023/09/25 01:40:15;;;;;;;7.68;6.13;;;;;;;21.05;100.00;102267.25;5093091;28;20039;-72
2023/09/25 01:42:42;;;;;;;6.63;6.03;;;;;;;21.59;100.00;102334.31;5093186;28;20512;-75
2023/09/25 01:45:11;;;;;;;9.27;6.13;;;;;;;21.57;100.00;102305.88;5075213;28;20055;-75
2023/09/25 01:47:37;;;;;;;7.35;5.65;;;;;;;21.10;100.00;102223.06;5075141;28;20032;-78
2023/09/25 01:50:03;;;;;;;6.47;5.40;;;;;;;21.15;100.00;102272.94;5074537;28;20497;-77
2023/09/25 01:52:29;;;;;;;8.68;6.13;;;;;;;21.41;100.00;102288.41;5074046;28;20032;-77
2023/09/25 01:54:55;;;;;;;8.70;5.90;;;;;;;21.21;100.00;102275.31;5092451;28;20027;-75
2023/09/25 01:57:21;;;;;;;7.80;5.78;;;;;;;21.00;100.00;102263.06;5091764;28;20043;-77
2023/09/25 01:59:47;;;;;;;7.45;6.05;;;;;;;20.89;100.00;102235.00;5092413;28;20102;-76
2023/09/25 02:02:13;;;;;;;8.98;6.00;;;;;;;20.97;100.00;102251.09;5092127;28;20032;-76
2023/09/25 02:04:38;;;;;;;6.57;5.82;;;;;;;21.19;100.00;102280.53;5092436;28;20081;-73
2023/09/25 02:07:04;;;;;;;6.38;5.78;;;;;;;21.17;100.00;102274.56;5091594;28;20036;-77
2023/09/25 02:09:29;;;;;;;6.85;6.18;;;;;;;21.23;100.00;102276.09;5074637;28;20028;-78
2023/09/25 02:11:54;;;;;;;7.38;6.47;;;;;;;21.08;100.00;102267.13;5073965;28;20024;-77
2023/09/25 02:14:20;;;;;;;6.90;6.20;;;;;;;20.58;100.00;102213.66;5091774;28;20107;-77
2023/09/25 02:16:46;;;;;;;8.50;6.65;;;;;;;20.29;100.00;102193.06;5074554;28;20097;-78
2023/09/25 02:19:12;;;;;;;8.15;6.40;;;;;;;20.28;100.00;102215.47;5092470;28;20494;-77
2023/09/25 02:21:37;;;;;;;6.85;6.18;;;;;;;20.88;100.00;102289.38;5092097;28;20020;-77
2023/09/25 02:24:03;;;;;;;7.15;6.07;;;;;;;20.40;100.00;102246.09;5092397;28;20040;-78
2023/09/25 02:26:28;;;;;;;7.78;6.15;;;;;;;20.40;100.00;102246.09;5092337;28;20032;-77
2023/09/25 02:28:54;;;;;;;6.75;5.93;;;;;;;20.34;100.00;102266.97;5091716;28;20028;-78
2023/09/25 02:31:19;;;;;;;8.13;6.40;;;;;;;20.57;100.00;102313.63;5092143;28;20059;-78
2023/09/25 02:33:44;;;;;;;8.57;6.53;;;;;;;20.34;100.00;102303.16;5092079;28;20613;-77
2023/09/25 02:36:10;;;;;;;10.68;6.63;;;;;;;20.92;100.00;102358.22;5091637;28;20032;-77
2023/09/25 02:38:36;;;;;;;9.35;6.55;;;;;;;20.87;100.00;102337.66;5073752;28;20039;-76
2023/09/25 02:41:01;;;;;;;8.18;6.70;;;;;;;20.89;100.00;102351.41;5091361;28;20486;-75
2023/09/25 02:43:27;;;;;;;6.97;6.28;;;;;;;20.51;100.00;102285.41;5073918;28;20016;-76
2023/09/25 02:45:53;;;;;;;7.57;6.28;;;;;;;20.81;100.00;102349.94;5092015;28;20032;-77
2023/09/25 02:48:18;;;;;;;10.73;6.68;;;;;;;20.37;100.00;102294.47;5092644;28;20067;-78
2023/09/25 02:50:46;;;;;;;9.43;7.22;;;;;;;20.36;100.00;102303.94;5077780;28;20052;-78
2023/09/25 02:53:11;;;;;;;8.27;6.13;;;;;;;20.41;100.00;102360.69;5077705;28;20494;-77
2023/09/25 02:55:37;;;;;;;9.63;6.38;;;;;;;20.72;100.00;102353.66;5094939;28;20034;-75
2023/09/25 02:58:02;;;;;;;8.15;6.35;;;;;;;20.70;100.00;102356.31;5095993;28;20024;-75
2023/09/25 03:00:28;;;;;;;8.13;6.80;;;;;;;20.38;100.00;102306.50;5095087;28;20454;-75
2023/09/25 03:02:53;;;;;;;9.20;6.43;;;;;;;20.68;100.00;102362.41;5095508;28;20029;-75
2023/09/25 03:05:19;;;;;;;9.82;6.70;;;;;;;20.72;100.00;102351.94;5095771;28;20032;-77
2023/09/25 03:07:45;;;;;;;10.15;6.55;;;;;;;21.04;100.00;102370.75;5096364;28;20031;-77
2023/09/25 03:10:11;;;;;;;8.73;6.32;;;;;;;20.41;100.00;102302.09;5095906;28;20078;-78
2023/09/25 03:12:37;;;;;;;8.18;5.82;;;;;;;20.73;100.00;102319.16;5095006;28;20623;-79
2023/09/25 03:15:04;;;;;;;8.82;6.60;;;;;;;21.20;100.00;102349.50;5095557;28;20035;-78
2023/09/25 03:17:32;;;;;;;9.57;6.10;;;;;;;21.31;100.00;102329.25;5096106;28;20101;-78
2023/09/25 03:19:57;;;;;;;12.90;6.88;;;;;;;20.99;100.00;102290.69;5095816;28;20054;-76
2023/09/25 03:22:23;;;;;;;11.65;7.80;;;;;;;20.96;100.00;102302.88;5096043;28;20039;-77
2023/09/25 03:24:48;;;;;;;8.75;6.88;;;;;;;20.86;100.00;102278.22;5095879;28;20028;-76
2023/09/25 03:27:16;;;;;;;9.38;7.50;;;;;;;20.45;100.00;102244.22;5096004;28;20038;-78
2023/09/25 03:29:41;;;;;;;9.75;6.85;;;;;;;21.00;100.00;102318.25;5077735;28;20062;-75
2023/09/25 03:32:07;;;;;;;11.00;7.57;;;;;;;20.94;100.00;102317.59;5094826;28;20080;-75
2023/09/25 03:34:32;;;;;;;9.07;7.05;;;;;;;20.66;100.00;102274.53;5095150;28;20027;-76
2023/09/25 03:36:57;;;;;;;11.52;8.38;;;;;;;20.55;100.00;102261.13;5095284;28;20090;-74
2023/09/25 03:39:23;;;;;;;12.35;10.15;;;;;;;20.64;100.00;102280.66;5094603;28;20097;-76
2023/09/25 03:41:48;;;;;;;12.85;9.73;;;;;;;20.61;100.00;102279.03;5094418;28;20024;-75
2023/09/25 03:44:14;;;;;;;12.82;9.10;;;;;;;20.50;100.00;102267.34;5094245;28;20491;-76
2023/09/25 03:46:39;;;;;;;11.15;9.43;;;;;;;20.98;100.00;102334.69;5094296;28;20035;-77
2023/09/25 03:49:06;;;;;;;11.90;9.15;;;;;;;20.93;100.00;102334.03;5091753;28;20127;-76
2023/09/25 03:51:35;;;;;;;13.93;10.55;;;;;;;20.97;100.00;102313.19;5094820;28;20055;-76
2023/09/25 03:54:01;;;;;;;15.40;10.13;;;;;;;20.90;100.00;102303.94;5094473;28;20044;-75
2023/09/25 03:56:29;;;;;;;15.93;11.02;;;;;;;20.90;100.00;102280.66;5093814;28;20024;-75
2023/09/25 03:58:55;;;;;;;17.10;10.90;;;;;;;21.07;100.00;102304.25;5075611;28;20436;-75
2023/09/25 04:01:21;;;;;;;13.82;10.75;;;;;;;21.05;100.00;102318.13;5092421;28;20020;-72
2023/09/25 04:03:46;;;;;;;18.63;10.65;;;;;;;20.76;100.00;102274.25;5093348;28;20039;-76
2023/09/25 04:06:12;;;;;;;15.45;9.90;;;;;;;20.98;100.00;102309.69;5093859;28;20024;-76
2023/09/25 04:08:37;;;;;;;14.20;10.40;;;;;;;20.88;100.00;102281.63;5094536;28;20524;-75
2023/09/25 04:11:03;;;;;;;13.35;10.25;;;;;;;20.50;100.00;102211.31;5094984;28;20032;-80
2023/09/25 04:13:29;;;;;;;14.75;9.60;;;;;;;20.73;100.00;102246.75;5094477;28;20028;-74
2023/09/25 04:15:56;;;;;;;17.00;9.63;;;;;;;20.98;100.00;102267.44;5094454;28;20480;-77
2023/09/25 04:18:22;;;;;;;13.63;8.80;;;;;;;20.93;100.00;102240.91;5076118;28;20028;-73
2023/09/25 04:20:49;;;;;;;18.23;9.30;;;;;;;21.40;100.00;102286.69;5083111;28;20024;-76
2023/09/25 04:23:15;;;;;;;19.83;8.70;;;;;;;21.41;100.00;102285.81;5090953;28;20500;-75
2023/09/25 04:25:40;;;;;;;13.63;8.73;;;;;;;21.38;100.00;102263.44;5093835;28;20028;-74
2023/09/25 04:28:06;;;;;;;11.93;7.68;;;;;;;21.62;100.00;102273.81;5093401;28;20032;-75
2023/09/25 04:30:31;;;;;;;9.98;7.13;;;;;;;21.64;100.00;102246.97;5093624;28;20024;-76
2023/09/25 04:32:57;;;;;;;11.60;7.65;;;;;;;21.76;100.00;102224.94;5097011;28;20211;-76
2023/09/25 04:35:24;;;;;;;9.73;7.18;;;;;;;23.00;100.00;102250.09;5109271;28;20098;-77
2023/09/25 04:37:49;;;;;;;10.27;7.25;;;;;;;22.33;100.00;102114.63;5093732;28;20032;-75
2023/09/25 04:40:22;;;;;;;8.65;6.90;;;;;;;21.88;100.00;102108.75;5082707;28;20028;-82
2023/09/25 04:42:53;;;;;;;10.75;7.45;;;;;;;22.30;100.00;102106.97;5085116;28;20495;-75
2023/09/25 04:45:19;;;;;;;9.75;7.78;;;;;;;21.73;100.00;102104.13;5091809;28;20058;-77
2023/09/25 04:47:51;;;;;;;12.10;7.85;;;;;;;21.66;100.00;102044.88;5090324;28;20027;-81
2023/09/25 04:50:18;;;;;;;11.75;7.78;;;;;;;22.23;100.00;102102.94;5086220;28;20028;-78
2023/09/25 04:52:45;;;;;;;14.82;8.43;;;;;;;22.06;100.00;102092.47;5075489;28;20028;-76
2023/09/25 04:55:12;;;;;;;10.77;7.88;;;;;;;21.87;100.00;102086.34;5093589;28;20073;-79
2023/09/25 04:57:39;;;;;;;18.67;8.60;;;;;;;21.73;100.00;102039.38;5093390;28;20032;-75
2023/09/25 05:00:14;;;;;;;15.18;8.15;;;;;;;22.15;100.00;102097.25;5091524;28;20032;-77
2023/09/25 05:02:41;;;;;;;11.68;8.02;;;;;;;21.86;100.00;102032.84;5075788;28;20028;-80
2023/09/25 05:05:06;;;;;;;9.07;7.35;;;;;;;22.02;100.00;102069.31;5093831;28;20024;-78
2023/09/25 05:07:33;;;;;;;11.85;7.30;;;;;;;21.79;100.00;102033.97;5094040;28;20566;-81
2023/09/25 05:09:58;;;;;;;12.50;7.50;;;;;;;21.99;100.00;102069.44;5065558;28;20058;-79
2023/09/25 05:12:24;;;;;;;13.02;7.85;;;;;;;21.37;100.00;102010.66;5091694;28;20029;-81
2023/09/25 05:14:49;;;;;;;10.60;8.05;;;;;;;21.36;100.00;102021.06;5075520;28;20039;-79
2023/09/25 05:17:15;;;;;;;8.27;7.22;;;;;;;21.56;100.00;102070.31;5072944;28;20044;-79
2023/09/25 05:19:41;;;;;;;10.50;8.15;;;;;;;21.32;100.00;102025.53;5084806;28;20027;-77
2023/09/25 05:22:07;;;;;;;10.52;7.80;;;;;;;21.30;100.00;102055.81;5090438;28;20027;-80
2023/09/25 05:24:32;;;;;;;11.57;8.00;;;;;;;21.85;100.00;102106.28;5072095;28;20459;-76
2023/09/25 05:26:57;;;;;;;8.88;7.88;;;;;;;21.71;100.00;102048.97;5071517;28;20054;-73
2023/09/25 05:29:23;;;;;;;12.60;7.80;;;;;;;21.79;100.00;102052.09;5076395;28;20082;-76
2023/09/25 05:31:48;;;;;;;14.65;7.60;;;;;;;22.05;100.00;102074.38;5101948;28;20428;-80
2023/09/25 05:34:14;;;;;;;12.43;7.40;;;;;;;21.94;100.00;102027.34;5112367;28;20023;-76
2023/09/25 05:36:39;;;;;;;12.27;7.80;;;;;;;22.33;100.00;102031.66;5112430;28;20493;-76
2023/09/25 05:39:06;;;;;;;9.13;7.65;;;;;;;22.80;100.00;102057.28;5111905;28;20126;-81
2023/09/25 05:41:31;;;;;;;9.07;7.10;;;;;;;22.72;100.00;102044.63;5094351;28;20035;-76
2023/09/25 05:43:57;;;;;;;10.25;8.52;;;;;;;22.85;100.00;101982.66;5089755;28;20028;-81
2023/09/25 05:46:22;;;;;;;10.27;7.60;;;;;;;22.35;100.00;101868.25;5092061;28;20055;-75
2023/09/25 05:48:47;;;;;;;13.65;7.28;;;;;;;23.04;100.00;101947.13;5092040;28;20151;-79
2023/09/25 05:51:13;;;;;;;10.90;7.47;;;;;;;23.76;100.00;101979.91;5092688;28;20020;-76
2023/09/25 05:53:39;;;;;;;10.07;7.25;;;;;;;23.29;100.00;101893.09;5092882;28;20035;-80
2023/09/25 05:56:04;;;;;;;9.77;6.90;;;;;;;22.79;100.00;101863.59;5092082;28;20039;-80
2023/09/25 05:58:32;;;;;;;10.40;6.97;;;;;;;23.13;100.00;101892.19;5092139;28;20424;-76
2023/09/25 06:00:57;;;;;;;8.80;7.03;;;;;;;23.31;100.00;101880.91;5093020;28;20107;-80
2023/09/25 06:03:25;;;;;;;10.40;7.43;;;;;;;23.71;100.00;101869.31;5092433;28;20062;-81
2023/09/25 06:05:51;;;;;;;10.57;6.90;;;;;;;23.55;100.00;101845.06;5090443;28;20032;-74
2023/09/25 06:08:16;;;;;;;8.93;6.68;;;;;;;23.66;100.00;101845.34;5088573;28;20115;-74
2023/09/25 06:10:44;;;;;;;10.70;6.85;;;;;;;23.68;100.00;101801.94;5092511;28;20028;-77
2023/09/25 06:13:09;;;;;;;8.15;6.90;;;;;;;23.40;100.00;101745.41;5091563;28;20083;-77
2023/09/25 06:15:37;;;;;;;9.15;7.18;;;;;;;24.11;100.00;101779.69;5090678;28;20580;-76
2023/09/25 06:18:07;;;;;;;8.45;7.00;;;;;;;23.96;100.00;101713.75;5092091;28;20035;-79
2023/09/25 06:20:36;;;;;;;10.18;6.80;;;;;;;23.81;100.00;101662.66;5108573;28;20020;-78
2023/09/25 06:23:02;;;;;;;9.10;7.32;;;;;;;23.84;100.00;101639.91;5113033;28;20027;-78
2023/09/25 06:25:29;;;;;;;10.60;7.50;;;;;;;24.16;100.00;101627.72;5103908;28;20111;-74
2023/09/25 06:27:55;;;;;;;7.93;6.65;;;;;;;24.74;100.00;101669.38;5084697;28;20142;-76
2023/09/25 06:30:21;;;;;;;10.00;7.07;;;;;;;24.36;100.00;101587.53;5075728;28;20077;-77
2023/09/25 06:32:47;;;;;;;9.30;7.03;;;;;;;24.69;100.00;101575.09;5092972;28;20114;-78
2023/09/25 06:35:13;;;;;;;8.20;6.63;;;;;;;25.00;100.00;101647.00;5093757;28;20454;-77
2023/09/25 06:37:38;;;;;;;11.63;7.63;;;;;;;25.35;100.00;101755.91;5095396;28;20114;-79
2023/09/25 06:40:09;;;;;;;12.50;7.22;;;;;;;25.45;100.00;101905.53;5095078;28;20016;-77
2023/09/25 06:42:37;;;;;;;9.50;7.53;;;;;;;25.00;100.00;102022.72;5096143;28;20024;-75
2023/09/25 06:45:03;;;;;;;10.77;7.18;;;;;;;24.80;100.00;102056.81;5088926;28;20025;-73
2023/09/25 06:47:29;;;;;;;10.63;6.60;;;;;;;25.09;100.00;102318.28;5110738;28;20019;-75
2023/09/25 06:49:54;;;;;;;9.63;6.82;;;;;;;25.09;100.00;102483.19;5115506;28;20505;-75
2023/09/25 06:52:20;;;;;;;9.57;6.07;;;;;;;25.20;100.00;102527.78;5105709;28;20501;-73
2023/09/25 06:54:45;;;;;;;10.93;6.40;;;;;;;24.86;100.00;102559.78;5095697;28;20039;-74
2023/09/25 06:57:10;;;;;;;9.73;6.50;;;;;;;25.00;100.00;102652.88;5095589;28;20486;-74
2023/09/25 06:59:37;;;;;;;12.95;6.68;;;;;;;25.04;100.00;102849.78;5090334;28;20507;-74
2023/09/25 07:02:03;;;;;;;11.48;6.85;;;;;;;25.37;100.00;103022.97;5095403;28;20035;-74
2023/09/25 07:04:28;;;;;;;8.85;6.88;;;;;;;25.42;100.00;103614.44;5095374;28;20040;-77
2023/09/25 07:06:54;;;;;;;8.60;6.55;;;;;;;24.62;100.00;103523.13;5095037;28;20024;-75
2023/09/25 07:09:21;;;;;;;7.30;6.30;;;;;;;25.64;100.00;103600.69;5095586;28;20042;-79
2023/09/25 07:11:47;;;;;;;7.38;6.43;;;;;;;25.59;100.00;103667.75;5094261;28;20024;-77
2023/09/25 07:14:13;;;;;;;9.05;6.32;;;;;;;25.69;100.00;103609.19;5092368;28;20501;-76
2023/09/25 07:16:38;;;;;;;12.45;6.03;;;;;;;25.58;100.00;103566.13;5097100;28;20066;-80
2023/09/25 07:19:03;;;;;;;13.10;7.22;;;;;;;25.66;100.00;103588.44;5092269;28;20032;-70
2023/09/25 07:21:29;;;;;;;9.65;6.38;;;;;;;25.75;100.00;103540.34;5082341;28;20086;-73
2023/09/25 07:23:54;;;;;;;10.73;6.30;;;;;;;25.63;100.00;103531.16;5076104;28;20133;-76
2023/09/25 07:26:20;;;;;;;8.38;6.05;;;;;;;25.50;100.00;103485.56;5055291;28;20067;-84
2023/09/25 07:28:49;;;;;;;7.22;6.05;;;;;;;25.85;100.00;103460.03;5073928;28;20479;-78
2023/09/25 07:31:22;;;;;;;12.60;6.10;;;;;;;26.16;100.00;103458.88;5055051;28;20045;-79
2023/09/25 07:33:49;;;;;;;9.60;6.53;;;;;;;25.91;100.00;103465.03;5073246;28;20140;-80
2023/09/25 07:36:19;;;;;;;9.63;6.50;;;;;;;26.43;100.00;103611.00;5073632;28;20020;-80
2023/09/25 07:38:46;;;;;;;9.35;5.93;;;;;;;25.80;100.00;103499.28;5074067;28;20032;-80
2023/09/25 07:41:12;;;;;;;8.40;6.38;;;;;;;26.15;100.00;103490.22;5055739;28;20063;-80
2023/09/25 07:43:40;;;;;;;12.10;6.32;;;;;;;26.25;100.00;103507.25;5074253;28;20084;-79
2023/09/25 07:46:06;;;;;;;12.63;8.27;;;;;;;26.99;100.00;103547.06;5073517;28;20070;-81
2023/09/25 07:48:32;;;;;;;8.57;5.85;;;;;;;26.58;100.00;103428.47;5074293;28;20041;-78
2023/09/25 07:50:58;;;;;;;8.32;6.35;;;;;;;26.87;100.00;103568.44;5073830;28;20040;-71
2023/09/25 07:53:25;;;;;;;7.90;6.55;;;;;;;26.74;100.00;103648.16;5056666;28;20142;-78
2023/09/25 07:55:51;;;;;;;10.48;6.45;;;;;;;26.54;100.00;104306.19;5075322;28;20040;-81
2023/09/25 07:58:17;;;;;;;8.70;6.03;;;;;;;27.69;100.00;104411.09;5087661;28;20032;-79
2023/09/25 08:00:45;;;;;;;11.40;6.13;;;;;;;27.50;100.00;103966.97;5085598;28;20089;-78
2023/09/25 08:03:14;;;;;;;13.80;6.18;;;;;;;27.64;100.00;103836.53;5075108;28;20122;-78
2023/09/25 08:05:40;;;;;;;10.77;5.60;;;;;;;27.16;100.00;103580.34;5074969;28;20028;-79
2023/09/25 08:08:05;;;;;;;6.97;5.20;;;;;;;27.70;100.00;103294.72;5075383;28;20089;-79
2023/09/25 08:10:32;;;;;;;8.10;5.45;;;;;;;27.48;100.00;102716.97;5074757;28;20021;-82
2023/09/25 08:12:57;;;;;;;11.10;5.82;;;;;;;27.67;100.00;102921.69;5074360;28;20027;-81
2023/09/25 08:15:23;;;;;;;9.50;5.60;;;;;;;28.03;100.00;102922.38;5074657;28;20028;-81
2023/09/25 08:17:49;;;;;;;10.55;5.70;;;;;;;28.38;100.00;102867.22;5056921;28;20071;-79
2023/09/25 08:20:20;;;;;;;9.60;5.90;;;;;;;28.09;100.00;102689.09;5075006;28;20036;-82
2023/09/25 08:22:47;;;;;;;9.18;5.45;;;;;;;28.02;100.00;102454.03;5074786;28;20029;-78
2023/09/25 08:25:12;;;;;;;7.57;5.10;;;;;;;28.18;100.00;102313.41;5088886;28;20016;-77
2023/09/25 08:27:41;;;;;;;10.57;5.45;;;;;;;27.21;100.00;102191.41;5098480;28;20039;-77
2023/09/25 08:30:08;;;;;;;8.38;5.22;;;;;;;27.93;100.00;102212.06;5077864;28;20495;-81
2023/09/25 08:32:34;;;;;;;9.45;5.28;;;;;;;28.19;100.00;102079.53;5074691;28;20051;-82
2023/09/25 08:35:00;;;;;;;7.85;5.43;;;;;;;28.34;100.00;102025.31;5074277;28;20020;-82
2023/09/25 08:37:25;;;;;;;6.72;5.45;;;;;;;28.59;100.00;102009.56;5074574;28;20044;-81
2023/09/25 08:39:52;;;;;;;6.38;5.10;;;;;;;28.49;100.00;101946.50;5074049;28;20430;-82
2023/09/25 08:42:21;;;;;;;7.40;5.60;;;;;;;28.54;100.00;101938.34;5074713;28;20050;-82
2023/09/25 08:44:49;;;;;;;6.75;5.15;;;;;;;29.12;100.00;101918.28;5073914;28;20082;-82
2023/09/25 08:47:17;;;;;;;9.55;4.90;;;;;;;28.25;100.00;101776.34;5072828;28;20023;-81
2023/09/25 08:49:43;;;;;;;11.15;5.30;;;;;;;28.43;100.00;101736.66;5073490;28;20024;-79
2023/09/25 08:52:08;;;;;;;12.63;5.05;;;;;;;27.78;100.00;101642.06;5055671;28;20032;-78
2023/09/25 08:54:35;;;;;;;9.52;5.00;;;;;;;27.64;100.00;101642.22;5073056;28;20562;-77
2023/09/25 08:57:02;;;;;;;15.15;5.20;;;;;;;27.64;100.00;101694.53;5073311;28;20419;-80
2023/09/25 08:59:29;;;;;;;9.98;4.93;;;;;;;27.36;100.00;101567.59;5073245;28;20029;-78
2023/09/25 09:01:54;;;;;;;8.75;5.00;;;;;;;27.36;100.00;101469.13;5073042;28;20059;-79
2023/09/25 09:04:23;;;;;;;10.57;5.50;;;;;;;28.37;100.00;101366.25;5073436;28;20067;-79
2023/09/25 09:06:49;;;;;;;8.52;4.88;;;;;;;28.24;100.00;101274.00;5072996;28;20032;-79
2023/09/25 09:09:15;;;;;;;10.63;5.20;;;;;;;27.62;100.00;101132.56;5073222;28;20039;-77
2023/09/25 09:11:53;;;;;;;6.82;5.10;;;;;;;28.31;100.00;101005.59;5073412;28;20032;-81
2023/09/25 09:14:40;;;;;;;9.63;5.20;;;;;;;28.49;100.00;100961.31;5073137;28;20032;-80
2023/09/25 09:17:08;;;;;;;14.05;5.30;;;;;;;28.34;100.00;100913.75;5071562;28;20050;-79
2023/09/25 09:19:36;;;;;;;9.30;5.20;;;;;;;28.25;100.00;100818.56;5072788;28;20024;-78
2023/09/25 09:22:07;;;;;;;11.73;4.95;;;;;;;28.34;100.00;100777.69;5072930;28;20032;-80
2023/09/25 09:24:40;;;;;;;11.30;5.00;;;;;;;28.34;100.00;100758.53;5072699;28;20533;-80
2023/09/25 09:27:09;;;;;;;6.65;4.82;;;;;;;28.83;100.00;100738.28;5055022;28;20120;-81
2023/09/25 09:29:35;;;;;;;7.07;5.05;;;;;;;28.57;100.00;100750.28;5054949;28;20094;-81
2023/09/25 09:32:00;;;;;;;10.57;4.82;;;;;;;28.27;100.00;100696.28;5073786;28;20074;-82
2023/09/25 09:34:26;;;;;;;9.43;4.85;;;;;;;28.51;100.00;100739.50;5071489;28;20062;-79
2023/09/25 09:36:52;;;;;;;10.93;4.80;;;;;;;28.47;100.00;100628.19;5071929;28;20119;-78
2023/09/25 09:39:22;;;;;;;8.75;4.72;;;;;;;29.12;100.00;100633.38;5072554;28;20025;-82
2023/09/25 09:41:51;;;;;;;7.97;4.68;;;;;;;28.89;100.00;100646.03;5073114;28;20031;-81
2023/09/25 09:44:17;;;;;;;9.60;5.38;;;;;;;28.94;100.00;100622.03;5072973;28;20025;-77
2023/09/25 09:46:46;;;;;;;11.18;4.75;;;;;;;29.22;100.00;100677.94;5072686;28;20483;-80
2023/09/25 09:49:15;;;;;;;8.80;4.80;;;;;;;28.69;100.00;100672.41;5055012;28;20093;-80
2023/09/25 09:51:43;;;;;;;7.03;4.80;;;;;;;28.55;100.00;100657.97;5073067;28;20035;-78
2023/09/25 09:54:14;;;;;;;7.95;5.03;;;;;;;28.64;100.00;100646.69;5072660;28;20032;-81
2023/09/25 09:56:40;;;;;;;8.38;5.13;;;;;;;28.85;100.00;100641.22;5071693;28;20024;-81
2023/09/25 09:59:06;;;;;;;11.00;5.47;;;;;;;28.80;100.00;100662.59;5072582;28;20036;-81
2023/09/25 10:01:35;;;;;;;8.73;5.30;;;;;;;29.59;100.00;100708.38;5076994;28;20074;-80
2023/09/25 10:04:07;;;;;;;8.25;4.90;;;;;;;29.36;100.00;100670.41;5074994;28;20510;-77
2023/09/25 10:06:42;;;;;;;9.07;5.13;;;;;;;29.84;100.00;100765.41;5072048;28;20028;-75
2023/09/25 10:09:10;;;;;;;8.30;5.35;;;;;;;29.00;100.00;100817.91;5072018;28;20036;-75
2023/09/25 10:11:36;;;;;;;10.43;5.43;;;;;;;28.80;100.00;100811.88;4368837;28;10001015;-74
2023/09/25 10:14:07;;;;;;;8.45;5.38;;;;;;;28.72;100.00;100851.00;5048716;28;20068;-76
2023/09/25 10:16:57;;;;;;;9.52;5.38;;;;;;;28.90;100.00;100833.63;5049335;28;20041;-77
2023/09/25 10:19:52;;;;;;;8.70;5.57;;;;;;;28.95;100.00;100792.16;5066484;28;20029;-77
2023/09/25 10:22:29;;;;;;;8.27;5.25;;;;;;;28.24;100.00;100746.28;5048112;28;20048;-75
2023/09/25 10:25:10;;;;;;;12.50;5.50;;;;;;;29.29;100.00;100741.88;5066878;28;20128;-76
2023/09/25 10:27:38;;;;;;;11.60;5.68;;;;;;;29.42;100.00;100789.56;5049597;28;20415;-75
2023/09/25 10:30:11;;;;;;;9.15;5.07;;;;;;;29.72;100.00;100815.56;5067082;28;20040;-77
2023/09/25 10:32:40;;;;;;;11.82;5.18;;;;;;;29.21;100.00;100805.50;5056873;28;20136;-75
2023/09/25 10:35:36;;;;;;;8.68;4.90;;;;;;;29.33;100.00;100897.91;5030024;28;20033;-79
2023/09/25 10:38:13;;;;;;;10.75;5.78;;;;;;;28.73;100.00;100857.06;5054226;28;20053;-78
2023/09/25 10:40:43;;;;;;;9.80;5.82;;;;;;;28.83;100.00;100892.78;5028955;28;20037;-75
2023/09/25 10:43:08;;;;;;;10.45;5.65;;;;;;;28.91;100.00;100837.94;5035184;28;20045;-76
2023/09/25 10:45:37;;;;;;;8.55;5.10;;;;;;;28.28;100.00;100812.25;5028736;28;20570;-76
2023/09/25 10:48:02;;;;;;;11.15;5.40;;;;;;;28.80;100.00;100879.94;5013565;28;20032;-76
2023/09/25 10:50:28;;;;;;;10.85;5.50;;;;;;;28.69;100.00;100867.00;5067632;28;20028;-74
2023/09/25 10:52:53;;;;;;;7.10;5.18;;;;;;;28.51;100.00;100857.28;5068482;28;20706;-79
2023/09/25 10:55:20;;;;;;;9.02;5.65;;;;;;;28.62;100.00;100863.28;5085422;28;20028;-76
2023/09/25 10:57:45;;;;;;;9.23;5.70;;;;;;;28.52;100.00;100806.63;5069491;28;20094;-78
2023/09/25 11:00:17;;;;;;;10.52;5.78;;;;;;;28.68;100.00;100854.84;5069239;28;20037;-76
2023/09/25 11:02:42;;;;;;;10.68;5.90;;;;;;;28.75;100.00;100839.44;5069445;28;20026;-81
2023/09/25 11:05:10;;;;;;;8.77;5.80;;;;;;;28.73;100.00;100830.91;5068827;28;20140;-78
2023/09/25 11:07:36;;;;;;;15.05;5.50;;;;;;;28.64;100.00;100798.53;5050434;28;20124;-74
2023/09/25 11:10:03;;;;;;;12.40;5.55;;;;;;;28.95;100.00;100791.31;5056852;28;20029;-76
2023/09/25 11:12:30;;;;;;;13.98;5.30;;;;;;;29.30;100.00;100780.22;5049338;28;20124;-76